TAF and METAR

Could not understand the following METAR

YWHA 230900Z AUTO 33009KT 9999 // NCD 23/06 Q1020
No TAF available for Whyalla Airport
Whyalla Airport in Australia at 13m

Latest 5 airports